Time;durP1;ratioP1;P1;durP2;ratioP2;P2;SDS_P1;SDS_P2;PMS_P1;PMS_P2;Temp;Humidity;BMP_temperature;BMP_pressure;BME280_temperature;BME280_humidity;BME280_pressure;Samples;Min_cycle;Max_cycle;Signal;HPM_P1;HPM_P2
2022/06/24 00:00:02;;;;;;;4.40;4.00;;;21.10;47.50;;;;;;4992157;28;20474;-63
2022/06/24 00:02:30;;;;;;;7.37;3.90;;;21.10;47.50;;;;;;4991478;28;20552;-62
2022/06/24 00:04:58;;;;;;;6.83;4.17;;;21.10;47.60;;;;;;4992010;28;20493;-62
2022/06/24 00:07:25;;;;;;;6.23;4.40;;;21.00;47.50;;;;;;4993155;28;20501;-61
2022/06/24 00:09:53;;;;;;;6.90;3.47;;;21.00;47.60;;;;;;4993859;28;20797;-61
2022/06/24 00:12:26;;;;;;;4.27;3.87;;;21.00;47.70;;;;;;4995184;28;20453;-60
2022/06/24 00:15:01;;;;;;;6.60;4.40;;;21.00;47.70;;;;;;4991409;28;20594;-59
2022/06/24 00:17:30;;;;;;;4.33;3.87;;;20.90;47.70;;;;;;4992468;28;20450;-59
2022/06/24 00:19:59;;;;;;;4.07;3.67;;;20.90;47.80;;;;;;4974412;28;20479;-59
2022/06/24 00:22:28;;;;;;;5.20;4.47;;;20.90;47.90;;;;;;4974202;28;20452;-59
2022/06/24 00:25:11;;;;;;;4.53;3.60;;;20.80;48.00;;;;;;4981790;28;20466;-59
2022/06/24 00:27:41;;;;;;;4.50;4.10;;;20.80;48.00;;;;;;4993409;28;20471;-59
2022/06/24 00:30:11;;;;;;;4.83;4.40;;;20.80;48.10;;;;;;4997486;28;20535;-59
2022/06/24 00:32:39;;;;;;;5.80;4.07;;;20.70;48.10;;;;;;4997812;28;20541;-59
2022/06/24 00:35:10;;;;;;;6.60;3.93;;;20.70;48.20;;;;;;4995942;28;20509;-60
2022/06/24 00:37:39;;;;;;;6.60;4.27;;;20.70;48.20;;;;;;4997652;28;20471;-59
2022/06/24 00:40:25;;;;;;;4.53;4.13;;;20.70;48.20;;;;;;4996764;28;20546;-59
2022/06/24 00:42:54;;;;;;;4.77;4.20;;;20.70;48.20;;;;;;4998024;28;20458;-57
2022/06/24 00:45:30;;;;;;;5.27;4.33;;;20.70;48.20;;;;;;4997345;28;20484;-59
2022/06/24 00:47:58;;;;;;;5.43;3.60;;;20.70;48.30;;;;;;4997682;28;20482;-58
2022/06/24 00:50:27;;;;;;;4.70;4.30;;;20.60;48.20;;;;;;4999206;28;20446;-59
2022/06/24 00:52:56;;;;;;;5.20;4.70;;;20.60;48.20;;;;;;5000580;28;20470;-58
2022/06/24 00:55:28;;;;;;;3.93;3.63;;;20.60;48.20;;;;;;5002167;28;20492;-58
2022/06/24 00:57:58;;;;;;;5.60;4.27;;;20.60;48.20;;;;;;4998255;28;20466;-60
2022/06/24 01:00:26;;;;;;;4.40;4.00;;;20.60;48.20;;;;;;4997964;28;20489;-59
2022/06/24 01:02:59;;;;;;;4.80;3.90;;;20.60;48.20;;;;;;4996153;28;20517;-57
2022/06/24 01:05:27;;;;;;;3.80;3.50;;;20.60;48.10;;;;;;4996787;28;20473;-59
2022/06/24 01:07:55;;;;;;;4.30;3.60;;;20.60;48.10;;;;;;4995918;28;20468;-57
2022/06/24 01:10:22;;;;;;;3.87;3.50;;;20.50;47.90;;;;;;4996999;28;20846;-59
2022/06/24 01:12:50;;;;;;;3.77;3.37;;;20.50;47.90;;;;;;4995806;28;20469;-57
2022/06/24 01:15:19;;;;;;;3.87;3.47;;;20.50;47.80;;;;;;4995465;28;20580;-59
2022/06/24 01:17:46;;;;;;;5.53;3.80;;;20.50;47.80;;;;;;4996053;28;20491;-59
2022/06/24 01:20:14;;;;;;;4.20;3.70;;;20.50;47.90;;;;;;4994993;28;20468;-58
2022/06/24 01:22:42;;;;;;;4.60;3.50;;;20.50;47.90;;;;;;4994264;28;20459;-58
2022/06/24 01:25:11;;;;;;;4.07;3.30;;;20.40;47.80;;;;;;4995294;28;20464;-59
2022/06/24 01:27:39;;;;;;;4.40;4.00;;;20.40;47.90;;;;;;4996633;28;20465;-59
2022/06/24 01:30:10;;;;;;;4.23;3.80;;;20.40;48.00;;;;;;4996237;28;20470;-58
2022/06/24 01:32:37;;;;;;;4.53;4.13;;;20.40;48.10;;;;;;4995788;28;21035;-60
2022/06/24 01:35:05;;;;;;;4.00;3.47;;;20.30;48.20;;;;;;4995120;28;20482;-56
2022/06/24 01:37:33;;;;;;;4.70;3.80;;;20.30;48.30;;;;;;4994137;28;20472;-58
2022/06/24 01:40:02;;;;;;;4.43;4.03;;;20.30;48.40;;;;;;4994684;28;20472;-58
2022/06/24 01:42:29;;;;;;;5.20;3.70;;;20.20;48.50;;;;;;4995300;28;20517;-59
2022/06/24 01:44:56;;;;;;;4.30;3.90;;;20.20;48.60;;;;;;4996293;28;20519;-59
2022/06/24 01:47:23;;;;;;;4.70;4.30;;;20.20;48.80;;;;;;4995041;28;21045;-57
2022/06/24 01:49:51;;;;;;;4.53;4.00;;;20.20;48.90;;;;;;4995184;28;20524;-57
2022/06/24 01:52:19;;;;;;;5.07;4.50;;;20.10;49.00;;;;;;4994855;28;20450;-58
2022/06/24 01:54:46;;;;;;;4.33;3.60;;;20.10;49.70;;;;;;4994039;28;20488;-58
2022/06/24 01:57:15;;;;;;;5.07;3.93;;;20.00;49.30;;;;;;4994640;28;20554;-60
2022/06/24 01:59:42;;;;;;;4.40;4.00;;;20.00;49.40;;;;;;4995644;28;20461;-58
2022/06/24 02:02:09;;;;;;;6.30;4.27;;;19.90;49.50;;;;;;4994753;28;20467;-59
2022/06/24 02:04:37;;;;;;;4.37;4.00;;;19.90;49.70;;;;;;4996189;28;20470;-58
2022/06/24 02:07:04;;;;;;;4.70;4.30;;;19.90;49.80;;;;;;4995042;28;20987;-58
2022/06/24 02:13:26;;;;;;;4.60;4.10;;;19.90;49.90;;;;;;4996095;28;20498;-59
2022/06/24 02:15:06;;;;;;;4.17;3.80;;;19.90;50.10;;;;;;4994519;28;20481;-59
2022/06/24 02:17:33;;;;;;;4.20;3.90;;;19.90;50.10;;;;;;4996733;28;20463;-59
2022/06/24 02:20:01;;;;;;;5.10;4.60;;;19.90;50.20;;;;;;4997044;28;20471;-59
2022/06/24 02:22:28;;;;;;;4.23;3.93;;;19.90;50.20;;;;;;4997805;28;20471;-59
2022/06/24 02:24:55;;;;;;;4.37;4.00;;;19.90;50.30;;;;;;4997403;28;20948;-59
2022/06/24 02:27:24;;;;;;;4.70;4.30;;;19.90;50.30;;;;;;4997407;28;20471;-59
2022/06/24 02:29:51;;;;;;;4.70;4.30;;;19.80;50.30;;;;;;4998738;28;20468;-59
2022/06/24 02:32:19;;;;;;;5.67;4.37;;;19.90;50.50;;;;;;4997627;28;20500;-58
2022/06/24 02:34:46;;;;;;;5.07;4.67;;;19.90;50.50;;;;;;4995708;28;20512;-60
2022/06/24 02:37:13;;;;;;;5.17;4.40;;;19.90;50.60;;;;;;4994589;28;20496;-59
2022/06/24 02:39:40;;;;;;;7.50;4.50;;;19.90;50.70;;;;;;4993689;28;20528;-59
2022/06/24 02:42:08;;;;;;;4.67;4.27;;;19.80;50.70;;;;;;4994120;28;20447;-59
2022/06/24 02:44:36;;;;;;;4.63;4.23;;;19.80;50.70;;;;;;4979322;28;20470;-59
2022/06/24 02:47:05;;;;;;;5.10;4.60;;;19.80;50.80;;;;;;4994177;28;20537;-58
2022/06/24 02:49:32;;;;;;;5.17;4.67;;;19.80;50.90;;;;;;4993591;28;20525;-60
2022/06/24 02:51:59;;;;;;;4.90;4.43;;;19.80;51.00;;;;;;4992933;28;20463;-59
2022/06/24 02:54:27;;;;;;;4.97;4.57;;;19.80;51.10;;;;;;4993967;28;20550;-58
2022/06/24 02:56:54;;;;;;;4.77;4.37;;;19.70;51.20;;;;;;4993963;28;21002;-57
2022/06/24 02:59:23;;;;;;;5.17;4.70;;;19.70;51.30;;;;;;4993717;28;20502;-58
2022/06/24 03:01:51;;;;;;;4.30;4.00;;;19.70;51.40;;;;;;4993117;28;20463;-58
2022/06/24 03:04:19;;;;;;;4.83;4.43;;;19.70;51.50;;;;;;4994177;28;20514;-58
2022/06/24 03:06:46;;;;;;;5.30;4.80;;;19.70;51.60;;;;;;4995719;28;20994;-58
2022/06/24 03:09:13;;;;;;;4.43;4.03;;;19.70;51.80;;;;;;4995532;28;20866;-58
2022/06/24 03:11:41;;;;;;;5.07;4.67;;;19.70;51.90;;;;;;4995865;28;20506;-59
2022/06/24 03:14:08;;;;;;;4.87;4.47;;;19.70;51.90;;;;;;4992643;28;20518;-59
2022/06/24 03:16:36;;;;;;;4.60;4.30;;;19.60;52.00;;;;;;4993630;28;20496;-59
2022/06/24 03:19:04;;;;;;;4.80;4.50;;;19.60;52.00;;;;;;4992465;28;21006;-59
2022/06/24 03:21:32;;;;;;;5.80;5.30;;;19.60;52.10;;;;;;4993345;28;21005;-59
2022/06/24 03:23:59;;;;;;;4.50;4.17;;;19.60;52.20;;;;;;4993684;28;20471;-59
2022/06/24 03:26:26;;;;;;;5.27;4.77;;;19.70;52.40;;;;;;4992115;28;20514;-59
2022/06/24 03:28:53;;;;;;;5.00;4.60;;;19.70;52.40;;;;;;4992138;28;21003;-58
2022/06/24 03:31:21;;;;;;;4.43;4.10;;;19.70;52.40;;;;;;4992697;28;21012;-58
2022/06/24 03:33:48;;;;;;;4.70;4.30;;;19.70;52.50;;;;;;4992174;28;20534;-59
2022/06/24 03:36:17;;;;;;;5.30;4.50;;;19.70;52.40;;;;;;4995878;28;20490;-57
2022/06/24 03:38:44;;;;;;;6.17;4.83;;;19.70;52.50;;;;;;4995436;28;20884;-58
2022/06/24 03:41:11;;;;;;;5.77;4.13;;;19.80;52.50;;;;;;4996224;28;20501;-57
2022/06/24 03:43:38;;;;;;;7.43;4.83;;;19.80;52.60;;;;;;4994873;28;20469;-58
2022/06/24 03:46:06;;;;;;;5.23;4.83;;;19.80;52.60;;;;;;5033027;22;20495;-68
2022/06/24 03:48:33;;;;;;;5.20;4.90;;;19.80;52.60;;;;;;5043318;28;20465;-68
2022/06/24 03:51:01;;;;;;;5.07;4.43;;;19.90;52.60;;;;;;5045920;28;20455;-68
2022/06/24 03:53:31;;;;;;;5.03;4.37;;;19.90;52.60;;;;;;5043835;28;20462;-67
2022/06/24 03:55:58;;;;;;;5.63;4.80;;;20.10;52.50;;;;;;5034488;28;20484;-69
2022/06/24 03:58:25;;;;;;;5.43;5.00;;;20.50;52.20;;;;;;5018210;28;20465;-68
2022/06/24 04:01:00;;;;;;;4.90;4.50;;;20.80;51.60;;;;;;5017017;28;20491;-67
2022/06/24 04:03:27;;;;;;;4.40;4.00;;;21.20;51.00;;;;;;5017120;28;20523;-67
2022/06/24 04:05:55;;;;;;;5.23;4.67;;;21.60;50.30;;;;;;5018661;28;20466;-68
2022/06/24 04:09:53;;;;;;;4.83;4.43;;;22.10;48.90;;;;;;5104123;27;1655218;-68
2022/06/24 04:12:20;;;;;;;13.67;5.67;;;22.50;48.90;;;;;;5151145;27;20658;-67
2022/06/24 04:17:32;;;;;;;9.83;4.83;;;23.00;47.90;;;;;;5130748;27;20834;-69
2022/06/24 04:19:59;;;;;;;4.67;4.17;;;23.20;47.50;;;;;;5130961;28;20959;-68
2022/06/24 04:22:27;;;;;;;4.90;4.47;;;23.40;47.20;;;;;;5129102;28;20484;-69
2022/06/24 04:24:56;;;;;;;5.07;4.63;;;23.50;46.80;;;;;;5132574;28;20505;-68
2022/06/24 04:27:23;;;;;;;7.83;5.20;;;23.70;46.60;;;;;;5143779;27;20468;-68
2022/06/24 04:29:50;;;;;;;24.17;6.87;;;23.90;46.30;;;;;;5141940;28;20537;-69
2022/06/24 04:32:17;;;;;;;4.93;4.40;;;24.00;46.00;;;;;;5130226;28;20501;-69
2022/06/24 04:34:45;;;;;;;6.33;4.67;;;24.00;46.00;;;;;;5130004;28;20468;-68
2022/06/24 04:37:12;;;;;;;4.70;4.27;;;24.00;46.00;;;;;;5129649;28;20567;-68
2022/06/24 04:39:39;;;;;;;4.77;4.33;;;24.10;45.90;;;;;;5130194;28;20542;-67
2022/06/24 04:42:08;;;;;;;4.63;4.23;;;24.30;45.60;;;;;;5130153;28;20461;-68
2022/06/24 04:44:35;;;;;;;7.97;4.50;;;24.40;45.30;;;;;;5128553;28;20543;-68
2022/06/24 04:47:03;;;;;;;5.80;4.40;;;24.30;45.20;;;;;;5129049;27;20484;-68
2022/06/24 04:49:30;;;;;;;5.70;5.17;;;24.00;45.50;;;;;;5129306;28;20567;-68
2022/06/24 04:51:57;;;;;;;7.93;4.30;;;23.80;45.90;;;;;;5128970;28;20460;-68
2022/06/24 04:54:25;;;;;;;8.20;5.20;;;23.70;46.20;;;;;;5129322;28;20525;-68
2022/06/24 04:56:52;;;;;;;4.70;4.30;;;23.60;46.40;;;;;;5129303;28;20475;-68
2022/06/24 04:59:21;;;;;;;4.70;4.40;;;23.50;46.60;;;;;;5128479;28;20448;-68
2022/06/24 05:01:48;;;;;;;5.13;4.63;;;23.30;46.70;;;;;;5129716;28;20509;-69
2022/06/24 05:04:16;;;;;;;5.13;4.67;;;23.20;47.00;;;;;;5129656;28;20460;-69
2022/06/24 05:06:43;;;;;;;6.37;5.00;;;23.20;47.20;;;;;;5130001;27;20497;-68
2022/06/24 05:09:10;;;;;;;4.80;4.30;;;23.30;47.20;;;;;;5125100;28;20487;-68
2022/06/24 05:11:38;;;;;;;6.00;5.50;;;23.50;47.10;;;;;;5129815;28;20457;-68
2022/06/24 05:14:05;;;;;;;6.33;5.00;;;23.90;46.80;;;;;;5129605;28;20468;-69
2022/06/24 05:16:34;;;;;;;4.80;4.40;;;24.40;46.10;;;;;;5130226;27;20587;-68
2022/06/24 05:19:01;;;;;;;5.80;3.87;;;25.10;45.40;;;;;;5128987;28;20456;-67
2022/06/24 05:21:28;;;;;;;7.80;4.87;;;25.60;44.60;;;;;;5114212;28;20513;-63
2022/06/24 05:23:55;;;;;;;5.20;4.60;;;25.90;43.80;;;;;;5113615;28;20448;-65
2022/06/24 05:26:23;;;;;;;7.10;4.87;;;26.10;43.20;;;;;;5114726;28;20473;-65
2022/06/24 05:28:50;;;;;;;6.33;4.70;;;26.40;42.90;;;;;;5115792;28;20505;-65
2022/06/24 05:31:17;;;;;;;6.33;5.07;;;26.70;42.50;;;;;;5115344;28;20544;-65
2022/06/24 05:33:46;;;;;;;5.77;4.30;;;26.90;42.10;;;;;;5115260;28;20977;-64
2022/06/24 05:36:14;;;;;;;5.03;4.53;;;27.20;41.60;;;;;;5116516;28;20494;-64
2022/06/24 05:38:41;;;;;;;5.43;4.60;;;27.50;41.20;;;;;;5116408;28;20446;-64
2022/06/24 05:41:09;;;;;;;4.47;4.07;;;27.60;40.80;;;;;;5100235;28;20518;-65
2022/06/24 05:43:36;;;;;;;5.43;4.43;;;27.70;40.70;;;;;;5115455;28;20568;-65
2022/06/24 05:46:03;;;;;;;4.73;4.30;;;27.80;40.50;;;;;;5115699;28;20466;-66
2022/06/24 05:48:31;;;;;;;5.03;4.37;;;27.90;40.10;;;;;;5114853;28;20508;-65
2022/06/24 05:50:59;;;;;;;6.37;4.10;;;28.00;39.70;;;;;;5115357;28;20526;-66
2022/06/24 05:56:12;;;;;;;4.90;4.40;;;27.90;39.60;;;;;;5113990;28;20543;-66
2022/06/24 05:58:39;;;;;;;5.30;4.60;;;27.70;39.70;;;;;;5115929;28;20445;-66
2022/06/24 06:01:10;;;;;;;4.97;3.90;;;27.80;39.70;;;;;;5114515;28;20452;-65
2022/06/24 06:03:38;;;;;;;5.40;4.90;;;27.90;39.50;;;;;;5115091;28;20453;-66
2022/06/24 06:06:07;;;;;;;4.70;4.30;;;28.10;39.30;;;;;;5116062;28;20461;-66
2022/06/24 06:08:35;;;;;;;4.23;3.83;;;28.10;39.30;;;;;;5113778;28;20481;-65
2022/06/24 06:11:03;;;;;;;4.83;4.07;;;28.20;39.40;;;;;;5106944;28;20883;-66
2022/06/24 06:13:30;;;;;;;5.00;4.60;;;28.20;39.40;;;;;;5110892;28;20461;-66
2022/06/24 06:15:57;;;;;;;4.60;4.20;;;28.30;39.40;;;;;;5115210;28;20560;-65
2022/06/24 06:18:24;;;;;;;5.00;4.50;;;28.30;39.60;;;;;;5115129;28;20469;-66
2022/06/24 06:20:51;;;;;;;6.10;3.90;;;28.30;39.70;;;;;;5114978;28;20540;-65
2022/06/24 06:23:20;;;;;;;5.13;4.60;;;28.30;39.80;;;;;;5114485;28;20510;-65
2022/06/24 06:25:47;;;;;;;5.67;4.60;;;28.30;40.00;;;;;;5113822;28;20525;-65
2022/06/24 06:28:15;;;;;;;4.50;4.00;;;28.20;40.10;;;;;;5115069;28;20556;-65
2022/06/24 06:30:42;;;;;;;7.10;4.50;;;28.20;40.30;;;;;;5114644;28;20518;-66
2022/06/24 06:33:10;;;;;;;4.93;4.00;;;28.10;40.40;;;;;;5113435;28;20461;-65
2022/06/24 06:35:37;;;;;;;5.23;4.80;;;28.00;40.60;;;;;;5112818;28;20534;-65
2022/06/24 06:38:04;;;;;;;4.67;4.30;;;27.90;41.00;;;;;;5113778;28;20457;-66
2022/06/24 06:40:35;;;;;;;4.57;4.17;;;27.80;41.10;;;;;;5114629;28;20467;-65
2022/06/24 06:43:02;;;;;;;5.30;4.10;;;27.80;41.20;;;;;;5113821;28;20948;-65
2022/06/24 06:45:30;;;;;;;5.07;4.57;;;27.70;41.40;;;;;;5111319;28;20514;-63
2022/06/24 06:47:58;;;;;;;4.70;4.30;;;27.50;41.60;;;;;;5084631;28;20972;-63
2022/06/24 06:50:25;;;;;;;4.90;4.50;;;27.60;41.70;;;;;;5108042;28;20569;-63
2022/06/24 06:52:53;;;;;;;4.90;4.47;;;27.60;41.70;;;;;;5113921;28;20494;-62
2022/06/24 06:55:20;;;;;;;4.70;4.37;;;27.70;42.00;;;;;;5114084;28;20437;-62
2022/06/24 06:57:50;;;;;;;5.30;4.77;;;27.80;41.90;;;;;;5108889;28;20513;-63
2022/06/24 07:00:18;;;;;;;4.40;3.87;;;27.90;41.70;;;;;;5098976;28;20453;-63
2022/06/24 07:02:46;;;;;;;5.33;4.33;;;27.90;41.80;;;;;;5112939;28;20479;-61
2022/06/24 07:05:13;;;;;;;5.43;4.90;;;27.80;41.90;;;;;;5114092;28;20441;-61
2022/06/24 07:07:40;;;;;;;7.83;4.03;;;27.70;42.00;;;;;;5109798;28;20523;-63
2022/06/24 07:10:08;;;;;;;6.43;4.03;;;27.80;41.90;;;;;;5114194;28;20481;-68
2022/06/24 07:12:35;;;;;;;4.60;4.20;;;27.90;41.80;;;;;;5104016;28;20446;-67
2022/06/24 07:15:04;;;;;;;7.20;4.50;;;27.80;41.80;;;;;;5094278;28;20450;-67
2022/06/24 07:17:32;;;;;;;9.07;4.77;;;27.90;41.80;;;;;;5094106;28;20553;-68
2022/06/24 07:19:59;;;;;;;5.13;4.37;;;28.00;41.80;;;;;;5110487;28;20457;-67
2022/06/24 07:22:26;;;;;;;5.80;4.90;;;28.00;42.00;;;;;;5114698;28;20448;-69
2022/06/24 07:24:53;;;;;;;5.70;4.13;;;28.00;41.90;;;;;;5097143;28;20499;-69
2022/06/24 07:27:21;;;;;;;7.00;4.03;;;28.00;42.10;;;;;;5096511;28;20507;-68
2022/06/24 07:29:48;;;;;;;4.40;4.00;;;27.90;42.30;;;;;;5096045;28;20517;-67
2022/06/24 07:32:17;;;;;;;7.03;4.37;;;28.00;42.40;;;;;;5113331;28;20492;-68
2022/06/24 07:34:44;;;;;;;4.90;4.40;;;28.10;42.20;;;;;;5115127;28;20461;-66
2022/06/24 07:37:11;;;;;;;4.97;4.53;;;28.20;42.30;;;;;;5114643;28;20461;-68
2022/06/24 07:39:38;;;;;;;4.33;4.03;;;28.10;42.50;;;;;;5112842;28;20453;-68
2022/06/24 07:42:06;;;;;;;4.50;4.20;;;28.00;42.70;;;;;;5114388;28;20807;-66
2022/06/24 07:44:34;;;;;;;6.27;5.70;;;28.00;42.90;;;;;;5113522;28;20475;-66
2022/06/24 07:47:01;;;;;;;12.20;4.93;;;28.20;42.60;;;;;;5111441;28;20485;-66
2022/06/24 07:49:30;;;;;;;7.63;4.27;;;28.30;42.50;;;;;;5097462;28;20481;-67
2022/06/24 07:51:57;;;;;;;4.50;4.10;;;28.50;42.60;;;;;;5111836;28;20518;-67
2022/06/24 07:54:25;;;;;;;5.67;3.70;;;28.70;42.40;;;;;;5112553;28;20929;-66
2022/06/24 07:56:57;;;;;;;4.73;3.77;;;28.70;42.30;;;;;;5112572;28;20893;-67
2022/06/24 07:59:25;;;;;;;4.27;3.37;;;28.70;42.30;;;;;;5114966;28;20422;-68
2022/06/24 08:01:53;;;;;;;6.60;3.53;;;28.60;42.40;;;;;;5114198;28;20513;-66
2022/06/24 08:04:21;;;;;;;4.43;3.40;;;28.50;42.60;;;;;;5112345;28;20892;-68
2022/06/24 08:06:52;;;;;;;3.83;3.07;;;28.40;42.70;;;;;;5109913;28;20839;-68
2022/06/24 08:09:20;;;;;;;3.90;3.50;;;28.40;42.80;;;;;;5096281;28;20593;-68
2022/06/24 08:11:48;;;;;;;4.40;2.90;;;28.50;42.90;;;;;;5097556;28;20536;-66
2022/06/24 08:14:16;;;;;;;4.67;3.97;;;28.40;42.90;;;;;;5112056;28;20441;-66
2022/06/24 08:16:43;;;;;;;4.90;3.13;;;28.40;43.00;;;;;;5112188;28;20556;-65
2022/06/24 08:19:11;;;;;;;5.00;3.53;;;28.30;43.20;;;;;;5113461;28;20441;-67
2022/06/24 08:21:38;;;;;;;3.80;3.50;;;28.50;43.10;;;;;;5094700;28;20925;-66
2022/06/24 08:24:09;;;;;;;3.77;2.80;;;28.60;42.80;;;;;;5092033;28;20881;-69
2022/06/24 08:26:36;;;;;;;6.63;3.00;;;28.60;42.90;;;;;;5106512;28;20480;-68
2022/06/24 08:29:03;;;;;;;4.83;3.20;;;28.80;42.70;;;;;;5121612;28;20453;-67
2022/06/24 08:31:31;;;;;;;5.60;3.33;;;28.90;42.50;;;;;;5125871;28;20892;-69
2022/06/24 08:33:58;;;;;;;5.50;3.77;;;29.10;42.40;;;;;;5122061;28;20445;-67
2022/06/24 08:36:26;;;;;;;5.00;2.80;;;29.00;42.40;;;;;;5126902;28;20485;-64
2022/06/24 08:38:54;;;;;;;4.87;3.20;;;29.10;42.40;;;;;;5127403;28;20483;-68
2022/06/24 08:41:25;;;;;;;3.33;2.97;;;29.40;42.10;;;;;;5124292;28;20479;-68
2022/06/24 08:43:54;;;;;;;3.13;2.70;;;29.50;41.80;;;;;;5121902;28;20481;-67
2022/06/24 08:46:22;;;;;;;3.37;2.90;;;29.60;41.70;;;;;;5121100;28;20461;-68
2022/06/24 08:48:50;;;;;;;2.90;2.67;;;30.00;41.30;;;;;;5103008;28;20480;-68
2022/06/24 08:51:18;;;;;;;5.40;2.90;;;30.30;40.70;;;;;;5098846;28;20442;-68
2022/06/24 08:53:45;;;;;;;6.30;3.37;;;30.60;40.10;;;;;;5108960;28;20545;-67
2022/06/24 08:56:13;;;;;;;6.50;3.40;;;30.70;39.90;;;;;;5108302;28;20594;-67
2022/06/24 08:58:42;;;;;;;3.20;2.90;;;30.60;40.00;;;;;;5114717;28;20457;-67
2022/06/24 09:01:15;;;;;;;5.00;3.33;;;30.50;40.00;;;;;;5117197;28;20544;-68
2022/06/24 09:03:44;;;;;;;4.97;3.47;;;30.30;40.30;;;;;;5117262;28;20446;-67
2022/06/24 09:06:13;;;;;;;5.70;3.30;;;30.20;40.80;;;;;;5116601;28;20518;-68
2022/06/24 09:08:45;;;;;;;6.07;3.00;;;30.40;40.80;;;;;;5116887;28;20510;-68
2022/06/24 09:11:12;;;;;;;4.23;2.70;;;30.60;40.50;;;;;;5116229;28;20484;-67
2022/06/24 09:13:45;;;;;;;3.13;2.23;;;30.70;40.50;;;;;;5116491;28;20509;-67
2022/06/24 09:16:15;;;;;;;3.90;2.50;;;30.70;40.50;;;;;;5115384;28;20545;-67
2022/06/24 09:18:43;;;;;;;6.73;3.00;;;30.70;40.50;;;;;;5116796;28;20568;-67
2022/06/24 09:21:23;;;;;;;4.00;2.50;;;30.60;40.80;;;;;;5108506;28;20496;-67
2022/06/24 09:23:55;;;;;;;3.10;2.30;;;30.30;41.00;;;;;;5104366;28;20457;-67
2022/06/24 09:26:33;;;;;;;2.97;2.30;;;30.20;41.20;;;;;;5103956;28;20586;-65
2022/06/24 09:29:03;;;;;;;4.50;3.00;;;30.10;41.50;;;;;;5113181;28;20948;-65
2022/06/24 09:31:31;;;;;;;6.57;2.50;;;29.80;42.00;;;;;;5113136;28;20451;-66
2022/06/24 09:34:08;;;;;;;4.00;2.30;;;29.50;42.50;;;;;;5109367;28;20287;-68
2022/06/24 09:36:37;;;;;;;6.53;2.60;;;29.30;43.00;;;;;;5107573;28;20548;-67
2022/06/24 09:39:07;;;;;;;4.90;2.20;;;29.00;43.60;;;;;;5096111;28;20519;-67
2022/06/24 09:41:44;;;;;;;3.97;2.00;;;28.70;44.10;;;;;;5094268;28;20895;-66
2022/06/24 09:44:14;;;;;;;3.93;2.63;;;28.30;44.80;;;;;;5108721;28;20454;-66
2022/06/24 09:46:42;;;;;;;4.33;2.33;;;28.00;45.50;;;;;;5115612;28;20472;-67
2022/06/24 09:49:12;;;;;;;4.53;2.33;;;27.80;46.00;;;;;;5116059;28;20445;-65
2022/06/24 09:51:40;;;;;;;4.50;2.50;;;27.70;46.30;;;;;;5111146;28;20468;-65
2022/06/24 09:54:08;;;;;;;5.27;2.83;;;27.60;46.50;;;;;;5103539;28;20445;-67
2022/06/24 09:56:36;;;;;;;4.97;3.30;;;27.60;46.70;;;;;;5112656;28;20492;-66
2022/06/24 10:01:51;;;;;;;4.63;2.70;;;27.50;46.90;;;;;;5112653;28;20413;-67
2022/06/24 10:04:19;;;;;;;3.47;2.43;;;27.40;47.20;;;;;;5109848;28;20480;-67
2022/06/24 10:06:47;;;;;;;4.40;3.27;;;27.30;47.70;;;;;;5114660;28;21047;-65
2022/06/24 10:09:18;;;;;;;5.50;2.93;;;27.10;48.00;;;;;;5115810;28;20948;-65
2022/06/24 10:11:52;;;;;;;4.17;2.43;;;27.10;48.30;;;;;;5110585;28;20462;-65
2022/06/24 10:14:20;;;;;;;5.63;2.67;;;26.90;48.60;;;;;;5095050;28;20434;-66
2022/06/24 10:16:50;;;;;;;2.43;2.23;;;26.90;49.00;;;;;;5095804;28;20462;-64
2022/06/24 10:19:20;;;;;;;3.70;3.07;;;27.00;49.10;;;;;;5112084;28;20482;-67
2022/06/24 10:21:48;;;;;;;3.87;3.07;;;27.10;49.10;;;;;;5115296;28;20749;-66
2022/06/24 10:24:17;;;;;;;4.63;3.27;;;27.20;48.90;;;;;;5114986;28;20884;-65
2022/06/24 10:26:47;;;;;;;3.77;2.70;;;27.40;49.00;;;;;;5115250;28;20522;-66
2022/06/24 10:29:21;;;;;;;3.23;2.90;;;27.60;49.30;;;;;;5114516;28;20475;-66
2022/06/24 10:31:55;;;;;;;5.10;2.73;;;27.70;49.30;;;;;;5114497;28;20498;-68
2022/06/24 10:34:45;;;;;;;4.37;2.97;;;27.70;49.40;;;;;;5116489;28;20429;-68
2022/06/24 10:37:27;;;;;;;6.37;3.17;;;27.70;49.40;;;;;;5117285;28;20461;-67
2022/06/24 10:39:56;;;;;;;3.97;2.60;;;27.80;49.50;;;;;;5115117;28;20441;-67
2022/06/24 10:42:25;;;;;;;4.63;2.67;;;28.00;49.30;;;;;;5115469;28;20499;-67
2022/06/24 10:44:58;;;;;;;4.70;2.50;;;28.20;48.80;;;;;;5114957;28;20438;-67
2022/06/24 10:47:37;;;;;;;5.83;3.87;;;28.60;48.20;;;;;;5114743;28;20986;-67
2022/06/24 10:50:20;;;;;;;4.37;3.30;;;28.70;48.00;;;;;;5114626;28;20514;-66
2022/06/24 10:53:02;;;;;;;5.20;3.60;;;28.80;47.70;;;;;;5114281;28;20430;-66
2022/06/24 10:55:35;;;;;;;4.60;2.80;;;28.90;47.70;;;;;;5114351;28;20908;-67
2022/06/24 10:58:04;;;;;;;3.70;2.50;;;28.90;48.20;;;;;;5114610;28;20443;-66
2022/06/24 11:00:48;;;;;;;3.43;2.50;;;28.70;49.20;;;;;;5114430;28;20441;-67
2022/06/24 11:03:20;;;;;;;4.17;2.60;;;28.50;50.50;;;;;;5114254;28;20429;-66
2022/06/24 11:05:48;;;;;;;9.30;3.20;;;28.50;51.00;;;;;;5114305;28;20469;-67
2022/06/24 11:08:18;;;;;;;4.87;3.30;;;28.50;51.40;;;;;;5114232;28;20457;-66
2022/06/24 11:10:47;;;;;;;4.40;2.90;;;28.70;51.80;;;;;;5114795;28;20879;-66
2022/06/24 11:13:14;;;;;;;3.57;2.20;;;28.70;53.60;;;;;;5114849;28;20483;-67
2022/06/24 11:15:45;;;;;;;5.63;2.50;;;28.60;54.10;;;;;;5115155;28;20465;-68
2022/06/24 11:18:16;;;;;;;4.00;2.50;;;28.50;54.30;;;;;;5114721;28;20438;-66
2022/06/24 11:20:47;;;;;;;5.73;2.17;;;28.40;54.40;;;;;;5114553;28;20490;-65
2022/06/24 11:23:16;;;;;;;8.70;2.60;;;28.40;55.00;;;;;;5114748;28;20429;-67
2022/06/24 11:25:47;;;;;;;4.00;3.17;;;28.10;55.80;;;;;;5118123;28;20465;-66
2022/06/24 11:28:22;;;;;;;6.43;3.10;;;27.60;57.70;;;;;;5117762;28;20486;-65
2022/06/24 11:30:50;;;;;;;4.13;3.60;;;27.40;59.40;;;;;;5115006;28;21032;-67
2022/06/24 11:33:18;;;;;;;3.33;2.67;;;27.20;60.40;;;;;;5113874;28;20503;-67
2022/06/24 11:35:48;;;;;;;8.00;3.13;;;27.10;60.80;;;;;;5114046;28;20514;-66
2022/06/24 11:38:19;;;;;;;3.60;2.30;;;27.00;60.90;;;;;;5114063;28;20892;-66
2022/06/24 11:40:49;;;;;;;5.60;3.00;;;27.00;61.20;;;;;;5114994;28;20461;-65
2022/06/24 11:43:17;;;;;;;4.57;2.67;;;26.90;61.30;;;;;;5115002;28;20467;-67
2022/06/24 11:45:46;;;;;;;3.33;2.63;;;27.00;61.10;;;;;;5114652;28;20497;-67
2022/06/24 11:48:20;;;;;;;5.13;3.40;;;27.10;60.80;;;;;;5114388;28;20494;-67
2022/06/24 11:50:50;;;;;;;4.00;2.50;;;27.20;60.10;;;;;;5113891;28;20549;-66
2022/06/24 11:53:22;;;;;;;6.43;3.40;;;27.30;59.80;;;;;;5113999;28;20448;-67
2022/06/24 11:55:51;;;;;;;4.10;2.57;;;27.30;59.50;;;;;;5114038;28;20469;-66
2022/06/24 11:58:20;;;;;;;4.27;3.20;;;27.30;59.50;;;;;;5113428;28;20514;-64
2022/06/24 12:00:48;;;;;;;6.07;3.40;;;27.30;59.40;;;;;;5113617;28;20445;-66
2022/06/24 12:03:16;;;;;;;4.10;2.90;;;27.30;59.40;;;;;;5114584;28;20461;-66
2022/06/24 12:05:46;;;;;;;4.20;3.00;;;27.20;59.30;;;;;;5114276;28;20493;-67
2022/06/24 12:08:15;;;;;;;4.80;2.37;;;27.30;59.30;;;;;;5112811;28;20887;-67
2022/06/24 12:10:52;;;;;;;5.97;2.93;;;27.40;59.10;;;;;;5114397;28;21014;-66
2022/06/24 12:13:29;;;;;;;5.13;2.17;;;27.60;58.70;;;;;;5113960;28;20973;-66
2022/06/24 12:15:57;;;;;;;5.67;2.40;;;27.70;58.10;;;;;;5113733;28;20522;-68
2022/06/24 12:18:26;;;;;;;5.40;2.63;;;27.90;57.60;;;;;;5114104;28;20441;-67
2022/06/24 12:21:01;;;;;;;3.43;2.30;;;28.00;57.10;;;;;;5113790;28;20433;-67
2022/06/24 12:23:41;;;;;;;3.90;3.00;;;28.20;56.60;;;;;;5113060;28;20456;-65
2022/06/24 12:26:15;;;;;;;5.23;2.47;;;28.40;56.10;;;;;;5113924;28;20471;-66
2022/06/24 12:28:43;;;;;;;5.20;1.90;;;28.50;55.60;;;;;;5113779;28;20422;-67
2022/06/24 12:31:12;;;;;;;6.90;2.70;;;28.50;55.20;;;;;;5117194;28;20984;-66
2022/06/24 12:33:51;;;;;;;5.77;2.40;;;28.50;54.80;;;;;;5119313;28;20514;-66
2022/06/24 12:36:20;;;;;;;3.70;2.00;;;28.70;54.30;;;;;;5117837;28;20469;-65
2022/06/24 12:39:04;;;;;;;4.00;3.10;;;28.80;53.80;;;;;;5117506;28;20811;-67
2022/06/24 12:41:41;;;;;;;5.67;3.43;;;29.00;53.30;;;;;;5121145;28;20800;-66
2022/06/24 12:44:09;;;;;;;4.43;3.20;;;29.20;52.90;;;;;;5120019;28;20432;-66
2022/06/24 12:50:35;;;;;;;4.17;3.73;;;29.30;52.50;;;;;;5119410;28;21021;-67
2022/06/24 12:52:35;;;;;;;10.43;7.43;;;29.40;51.70;;;;;;5116855;28;20617;-67
2022/06/24 12:55:06;;;;;;;11.47;10.40;;;29.50;51.30;;;;;;5135978;28;20509;-66
2022/06/24 12:57:33;;;;;;;6.30;3.90;;;29.50;51.10;;;;;;5120045;28;20457;-67
2022/06/24 13:00:04;;;;;;;4.47;2.70;;;29.60;50.80;;;;;;5117061;28;20538;-66
2022/06/24 13:02:31;;;;;;;4.30;1.90;;;29.70;50.70;;;;;;5118510;28;20413;-67
2022/06/24 13:04:58;;;;;;;9.63;2.40;;;29.80;50.60;;;;;;5117152;28;20494;-67
2022/06/24 13:07:26;;;;;;;5.73;2.57;;;29.80;50.50;;;;;;5115439;28;20565;-66
2022/06/24 13:09:53;;;;;;;3.67;2.30;;;29.80;50.50;;;;;;5095896;28;20553;-67